Time;durP1;ratioP1;P1;durP2;ratioP2;P2;SDS_P1;SDS_P2;PMS_P1;PMS_P2;Temp;Humidity;BMP_temperature;BMP_pressure;BME280_temperature;BME280_humidity;BME280_pressure;Samples;Min_cycle;Max_cycle;Signal;HPM_P1;HPM_P2
2021/04/12 00:00:59;;;;;;;;;;;5.10;99.90;;;;;;7013885;28;19920;-67
2021/04/12 00:04:27;;;;;;;;;;;5.00;99.90;;;;;;7015213;28;19924;-67
2021/04/12 00:07:56;;;;;;;;;;;5.00;99.90;;;;;;7017560;28;19924;-67
2021/04/12 00:11:17;;;;;;;;;;;5.00;99.90;;;;;;7010308;28;19916;-68
2021/04/12 00:14:41;;;;;;;;;;;5.00;99.90;;;;;;7022316;28;20069;-67
2021/04/12 00:18:09;;;;;;;;;;;5.00;99.90;;;;;;7011402;28;19943;-67
2021/04/12 00:21:37;;;;;;;;;;;4.90;99.90;;;;;;7016088;28;20287;-67
2021/04/12 00:25:05;;;;;;;;;;;5.00;99.90;;;;;;7017594;28;20003;-68
2021/04/12 00:28:32;;;;;;;;;;;5.00;99.90;;;;;;7010507;28;20308;-68
2021/04/12 00:31:55;;;;;;;;;;;5.00;99.90;;;;;;7012851;28;19916;-66
2021/04/12 00:35:39;;;;;;;;;;;4.90;99.90;;;;;;7009793;28;19969;-68
2021/04/12 00:39:04;;;;;;;;;;;4.90;99.90;;;;;;7000537;28;19970;-68
2021/04/12 00:42:43;;;;;;;;;;;4.90;99.90;;;;;;7014980;28;19945;-68
2021/04/12 00:46:09;;;;;;;;;;;5.00;99.90;;;;;;7015910;28;19922;-67
2021/04/12 00:49:37;;;;;;;;;;;5.00;99.90;;;;;;6996687;28;19912;-66
2021/04/12 00:53:16;;;;;;;;;;;5.00;99.90;;;;;;7008272;28;19923;-67
2021/04/12 00:56:43;;;;;;;;;;;5.00;99.90;;;;;;6984387;28;20368;-68
2021/04/12 01:00:08;;;;;;;;;;;5.00;99.90;;;;;;7013829;28;19918;-67
2021/04/12 01:03:41;;;;;;;;;;;5.00;99.90;;;;;;6994637;28;19920;-67
2021/04/12 01:07:36;;;;;;;;;;;4.90;99.90;;;;;;7009101;28;19973;-68
2021/04/12 01:11:17;;;;;;;;;;;4.90;99.90;;;;;;6958900;28;19912;-67
2021/04/12 01:14:46;;;;;;;;;;;4.80;99.90;;;;;;7006785;28;20286;-68
2021/04/12 01:18:25;;;;;;;;;;;4.60;99.90;;;;;;7008664;28;19924;-67
2021/04/12 01:21:58;;;;;;;;;;;4.60;99.90;;;;;;7006618;28;20367;-67
2021/04/12 01:25:39;;;;;;;;;;;4.60;99.90;;;;;;7012833;28;20394;-66
2021/04/12 01:29:29;;;;;;;;;;;4.60;99.90;;;;;;7012384;28;19912;-68
2021/04/12 01:32:58;;;;;;;;;;;4.60;99.90;;;;;;7011404;28;20033;-67
2021/04/12 01:36:24;;;;;;;;;;;4.40;99.90;;;;;;7012686;28;20010;-66
2021/04/12 01:39:44;;;;;;;;;;;4.30;99.90;;;;;;7014091;28;19981;-67
2021/04/12 01:43:09;;;;;;;;;;;4.20;99.90;;;;;;7005173;28;19950;-67
2021/04/12 01:46:41;;;;;;;;;;;4.10;99.90;;;;;;7017183;28;19920;-67
2021/04/12 01:50:17;;;;;;;;;;;4.10;99.90;;;;;;6991621;28;19991;-67
2021/04/12 01:53:38;;;;;;;;;;;4.00;99.90;;;;;;6999441;28;19916;-66
2021/04/12 01:57:17;;;;;;;;;;;4.00;99.90;;;;;;7009180;28;19960;-68
2021/04/12 02:00:53;;;;;;;;;;;3.90;99.90;;;;;;7000365;28;20364;-67
2021/04/12 02:04:32;;;;;;;;;;;3.90;99.90;;;;;;7011330;28;19913;-67
2021/04/12 02:08:09;;;;;;;;;;;3.90;99.90;;;;;;6976139;28;19942;-66
2021/04/12 02:11:32;;;;;;;;;;;3.90;99.90;;;;;;7009656;28;19913;-67
2021/04/12 02:15:03;;;;;;;;;;;4.00;99.90;;;;;;7018684;28;19949;-69
2021/04/12 02:18:35;;;;;;;;;;;4.00;99.90;;;;;;7013827;28;19923;-68
2021/04/12 02:21:58;;;;;;;;;;;3.90;99.90;;;;;;7010032;28;19917;-67
2021/04/12 02:25:39;;;;;;;;;;;3.80;99.90;;;;;;7011956;28;20400;-67
2021/04/12 02:29:08;;;;;;;;;;;3.80;99.90;;;;;;7008346;28;19995;-68
2021/04/12 02:32:38;;;;;;;;;;;3.80;99.90;;;;;;6996115;28;19916;-67
2021/04/12 02:36:05;;;;;;;;;;;3.80;99.90;;;;;;7015325;28;19912;-67
2021/04/12 02:39:45;;;;;;;;;;;3.70;99.90;;;;;;7006446;28;19912;-66
2021/04/12 02:43:26;;;;;;;;;;;3.80;99.90;;;;;;6995799;28;19970;-66
2021/04/12 02:47:01;;;;;;;;;;;3.70;99.90;;;;;;7008327;28;19924;-67
2021/04/12 02:50:47;;;;;;;;;;;3.60;99.90;;;;;;7013522;28;20286;-67
2021/04/12 02:54:40;;;;;;;;;;;3.60;99.90;;;;;;7007017;28;19919;-66
2021/04/12 02:58:04;;;;;;;;;;;3.60;99.90;;;;;;6978593;28;19912;-67
2021/04/12 03:01:49;;;;;;;;;;;3.50;99.90;;;;;;7013020;28;20374;-68
2021/04/12 03:05:33;;;;;;;;;;;3.40;99.90;;;;;;7014781;28;19912;-67
2021/04/12 03:09:31;;;;;;;;;;;3.40;99.90;;;;;;6952682;28;19916;-67
2021/04/12 03:13:01;;;;;;;;;;;3.20;99.90;;;;;;6852760;28;20388;-67
2021/04/12 03:16:22;;;;;;;;;;;3.30;99.90;;;;;;6900051;28;20057;-67
2021/04/12 03:20:08;;;;;;;;;;;3.30;99.90;;;;;;7010267;28;19913;-66
2021/04/12 03:23:45;;;;;;;;;;;3.30;99.90;;;;;;7013084;28;19913;-67
2021/04/12 03:27:12;;;;;;;;;;;3.30;99.90;;;;;;7006989;28;19924;-67
2021/04/12 03:30:44;;;;;;;;;;;3.30;99.90;;;;;;6998823;28;19919;-67
2021/04/12 03:34:13;;;;;;;;;;;3.30;99.90;;;;;;7010669;28;19919;-67
2021/04/12 03:37:37;;;;;;;;;;;3.30;99.90;;;;;;7005821;28;19948;-67
2021/04/12 03:41:13;;;;;;;;;;;3.20;99.90;;;;;;7018370;28;19912;-66
2021/04/12 03:44:43;;;;;;;;;;;3.20;99.90;;;;;;7008575;28;19920;-66
2021/04/12 03:48:16;;;;;;;;;;;3.20;99.90;;;;;;7014944;28;20355;-66
2021/04/12 03:51:45;;;;;;;;;;;3.20;99.90;;;;;;7009859;28;20504;-67
2021/04/12 03:55:18;;;;;;;;;;;3.20;99.90;;;;;;7017039;28;19916;-68
2021/04/12 03:58:50;;;;;;;;;;;3.20;99.90;;;;;;7007072;28;19912;-68
2021/04/12 04:02:17;;;;;;;;;;;3.10;99.90;;;;;;7012694;28;19923;-66
2021/04/12 04:05:57;;;;;;;;;;;3.20;99.90;;;;;;7003533;28;20279;-67
2021/04/12 04:09:26;;;;;;;;;;;3.10;99.90;;;;;;7014565;28;20339;-68
2021/04/12 04:12:50;;;;;;;;;;;3.10;99.90;;;;;;7013914;28;19916;-68
2021/04/12 04:16:12;;;;;;;;;;;3.10;99.90;;;;;;7017137;28;19919;-67
2021/04/12 04:19:47;;;;;;;;;;;3.10;99.90;;;;;;7015639;28;19917;-66
2021/04/12 04:23:26;;;;;;;;;;;3.10;99.90;;;;;;7010844;28;19912;-67
2021/04/12 04:27:02;;;;;;;;;;;3.10;99.90;;;;;;7009390;28;19921;-67
2021/04/12 04:30:23;;;;;;;;;;;3.10;99.90;;;;;;7016360;28;19945;-67
2021/04/12 04:34:06;;;;;;;;;;;3.10;99.90;;;;;;7014278;28;19913;-67
2021/04/12 04:37:39;;;;;;;;;;;2.90;99.90;;;;;;7012229;28;19954;-67
2021/04/12 04:41:09;;;;;;;;;;;2.90;99.90;;;;;;6991641;28;19924;-67
2021/04/12 04:44:41;;;;;;;;;;;2.80;99.90;;;;;;6985179;28;19935;-67
2021/04/12 04:48:02;;;;;;;;;;;2.80;99.90;;;;;;6974959;28;19960;-67
2021/04/12 04:51:40;;;;;;;;;;;2.80;99.90;;;;;;6977547;28;19924;-67
2021/04/12 04:55:15;;;;;;;;;;;2.70;99.90;;;;;;6988255;28;19912;-67
2021/04/12 04:58:43;;;;;;;;;;;2.80;99.90;;;;;;6987541;28;20422;-67
2021/04/12 05:02:10;;;;;;;;;;;2.80;99.90;;;;;;7004457;28;19920;-67
2021/04/12 05:06:01;;;;;;;;;;;2.80;99.90;;;;;;6992607;28;20474;-67
2021/04/12 05:09:21;;;;;;;;;;;2.80;99.90;;;;;;6984386;28;19917;-67
2021/04/12 05:12:42;;;;;;;;;;;2.80;99.90;;;;;;6994384;28;20499;-66
2021/04/12 05:16:09;;;;;;;;;;;2.80;99.90;;;;;;6978046;28;19963;-67
2021/04/12 05:19:30;;;;;;;;;;;2.80;99.90;;;;;;6995542;28;19916;-68
2021/04/12 05:23:00;;;;;;;;;;;2.80;99.90;;;;;;7004868;28;19935;-66
2021/04/12 05:26:21;;;;;;;;;;;2.90;99.90;;;;;;7004259;28;19917;-68
2021/04/12 05:30:01;;;;;;;;;;;2.80;99.90;;;;;;6995254;28;19918;-66
2021/04/12 05:33:41;;;;;;;;;;;2.80;99.90;;;;;;7007597;28;19919;-66
2021/04/12 05:37:06;;;;;;;;;;;2.90;99.90;;;;;;7004836;28;19912;-67
2021/04/12 05:40:26;;;;;;;;;;;3.10;99.90;;;;;;7013189;28;19917;-66
2021/04/12 05:43:55;;;;;;;;;;;3.20;99.90;;;;;;7012533;28;20596;-66
2021/04/12 05:47:22;;;;;;;;;;;3.30;99.90;;;;;;7005701;28;20252;-67
2021/04/12 05:50:43;;;;;;;;;;;3.30;99.90;;;;;;7011940;28;19959;-66
2021/04/12 05:54:22;;;;;;;;;;;3.40;99.90;;;;;;6993722;28;20438;-66
2021/04/12 05:57:55;;;;;;;;;;;3.50;99.90;;;;;;6993740;28;20533;-65
2021/04/12 06:01:22;;;;;;;;;;;3.60;99.90;;;;;;6998373;28;19917;-66
2021/04/12 06:05:01;;;;;;;;;;;3.70;99.90;;;;;;7001488;28;20363;-67
2021/04/12 06:08:31;;;;;;;;;;;3.80;99.90;;;;;;6993431;28;19917;-65
2021/04/12 06:11:58;;;;;;;;;;;3.70;99.90;;;;;;7000090;28;19920;-65
2021/04/12 06:15:25;;;;;;;;;;;3.70;99.90;;;;;;6988746;28;19974;-65
2021/04/12 06:18:58;;;;;;;;;;;3.60;99.90;;;;;;7006691;28;19912;-65
2021/04/12 06:22:38;;;;;;;;;;;3.70;99.90;;;;;;6991467;28;19979;-66
2021/04/12 06:26:17;;;;;;;;;;;3.70;99.90;;;;;;6997050;28;19967;-67
2021/04/12 06:29:41;;;;;;;;;;;3.70;99.90;;;;;;6997026;28;19943;-66
2021/04/12 06:33:29;;;;;;;;;;;3.70;99.90;;;;;;7003442;28;19957;-66
2021/04/12 06:37:06;;;;;;;;;;;3.80;99.90;;;;;;6998973;28;19912;-68
2021/04/12 06:40:26;;;;;;;;;;;4.00;99.90;;;;;;7000143;28;19982;-66
2021/04/12 06:43:55;;;;;;;;;;;4.00;99.90;;;;;;6991700;28;20535;-67
2021/04/12 06:47:23;;;;;;;;;;;4.30;99.90;;;;;;6996645;28;20264;-67
2021/04/12 06:51:03;;;;;;;;;;;4.50;99.90;;;;;;6997478;28;19963;-66
2021/04/12 06:54:51;;;;;;;;;;;4.40;99.90;;;;;;7012241;28;19916;-66
2021/04/12 06:58:31;;;;;;;;;;;4.60;99.90;;;;;;6978940;28;20426;-68
2021/04/12 07:01:57;;;;;;;;;;;4.60;99.90;;;;;;7011025;28;19912;-66
2021/04/12 07:05:24;;;;;;;;;;;4.50;99.90;;;;;;6974304;28;19913;-66
2021/04/12 07:08:48;;;;;;;;;;;4.40;99.90;;;;;;6995306;28;19962;-67
2021/04/12 07:12:13;;;;;;;;;;;4.40;99.90;;;;;;7006040;28;19912;-68
2021/04/12 07:15:37;;;;;;;;;;;4.40;99.90;;;;;;7003533;28;20279;-66
2021/04/12 07:19:17;;;;;;;;;;;4.50;99.90;;;;;;7017701;28;19912;-69
2021/04/12 07:22:40;;;;;;;;;;;4.60;99.90;;;;;;7005497;28;19957;-68
2021/04/12 07:26:10;;;;;;;;;;;4.90;99.90;;;;;;6999475;28;19916;-66
2021/04/12 07:29:34;;;;;;;;;;;5.20;99.90;;;;;;7015362;28;19921;-66
2021/04/12 07:32:58;;;;;;;;;;;5.00;99.90;;;;;;7016066;28;19938;-66
2021/04/12 07:36:37;;;;;;;;;;;5.10;99.90;;;;;;7006155;28;19913;-67
2021/04/12 07:40:10;;;;;;;;;;;5.10;99.90;;;;;;6992318;28;20328;-67
2021/04/12 07:43:42;;;;;;;;;;;5.00;99.90;;;;;;6980262;28;20003;-66
2021/04/12 07:47:09;;;;;;;;;;;5.00;99.90;;;;;;6980313;28;19920;-66
2021/04/12 07:50:33;;;;;;;;;;;5.00;99.90;;;;;;6989272;28;19966;-68
2021/04/12 07:54:12;;;;;;;;;;;5.10;99.90;;;;;;6990670;28;19912;-67
2021/04/12 07:57:39;;;;;;;;;;;5.40;99.90;;;;;;6978040;28;19919;-67
2021/04/12 08:01:19;;;;;;;;;;;5.70;99.90;;;;;;6987527;28;19913;-67
2021/04/12 08:05:04;;;;;;;;;;;5.90;99.90;;;;;;6986559;28;19920;-66
2021/04/12 08:08:43;;;;;;;;;;;6.20;99.90;;;;;;6990034;28;20276;-67
2021/04/12 08:12:17;;;;;;;;;;;6.30;99.90;;;;;;6973203;28;19916;-66
2021/04/12 08:15:57;;;;;;;;;;;6.80;99.90;;;;;;6993374;28;19962;-65
2021/04/12 08:19:32;;;;;;;;;;;7.50;99.90;;;;;;7002145;28;20402;-66
2021/04/12 08:23:11;;;;;;;;;;;7.80;99.90;;;;;;6997815;28;19912;-69
2021/04/12 08:26:41;;;;;;;;;;;8.10;99.90;;;;;;7000005;28;19939;-66
2021/04/12 08:30:17;;;;;;;;;;;8.70;99.90;;;;;;6997136;28;19912;-68
2021/04/12 08:33:50;;;;;;;;;;;8.80;99.90;;;;;;6984760;28;19913;-67
2021/04/12 08:37:23;;;;;;;;;;;8.70;99.90;;;;;;6994829;28;19912;-66
2021/04/12 08:41:16;;;;;;;;;;;8.60;99.90;;;;;;7002265;28;19919;-68
2021/04/12 08:44:42;;;;;;;;;;;8.80;99.90;;;;;;7006745;28;19977;-66
2021/04/12 08:48:12;;;;;;;;;;;8.40;99.90;;;;;;7013485;28;19977;-66
2021/04/12 08:51:51;;;;;;;;;;;8.40;99.90;;;;;;6998215;28;19982;-66
2021/04/12 08:55:12;;;;;;;;;;;8.50;99.90;;;;;;7013818;28;20325;-69
2021/04/12 08:58:51;;;;;;;;;;;9.00;99.90;;;;;;7010014;28;19912;-67
2021/04/12 09:02:23;;;;;;;;;;;9.10;99.90;;;;;;7010942;28;20032;-67
2021/04/12 09:06:02;;;;;;;;;;;9.70;99.90;;;;;;7011008;28;20397;-66
2021/04/12 09:09:57;;;;;;;;;;;9.60;99.90;;;;;;7005537;28;19919;-67
2021/04/12 09:13:27;;;;;;;;;;;9.30;99.90;;;;;;6985837;28;19973;-66
2021/04/12 09:17:12;;;;;;;;;;;9.20;99.90;;;;;;7012912;28;19912;-66
2021/04/12 09:20:38;;;;;;;;;;;9.20;99.90;;;;;;6994731;28;19913;-68
2021/04/12 09:24:02;;;;;;;;;;;9.30;99.90;;;;;;7009218;28;20011;-67
2021/04/12 09:27:22;;;;;;;;;;;9.30;99.90;;;;;;7009231;28;19927;-66
2021/04/12 09:31:02;;;;;;;;;;;9.50;99.90;;;;;;7002529;28;19912;-68
2021/04/12 09:34:22;;;;;;;;;;;9.50;99.90;;;;;;6985288;28;19921;-66
2021/04/12 09:37:49;;;;;;;;;;;9.20;99.90;;;;;;7011216;28;20390;-68
2021/04/12 09:41:10;;;;;;;;;;;9.60;99.90;;;;;;6991162;28;19912;-67
2021/04/12 09:44:49;;;;;;;;;;;10.10;99.90;;;;;;7013780;28;19916;-67
2021/04/12 09:48:22;;;;;;;;;;;10.20;99.90;;;;;;7013859;28;20383;-67
2021/04/12 09:52:03;;;;;;;;;;;10.20;99.90;;;;;;7007240;28;19920;-67
2021/04/12 09:55:36;;;;;;;;;;;9.60;99.90;;;;;;6994400;28;19951;-67
2021/04/12 09:59:18;;;;;;;;;;;9.20;99.90;;;;;;7004608;28;19916;-66
2021/04/12 10:02:57;;;;;;;;;;;9.20;99.90;;;;;;7002187;28;20415;-68
2021/04/12 10:06:41;;;;;;;;;;;10.60;99.90;;;;;;6997670;28;19920;-67
2021/04/12 10:10:07;;;;;;;;;;;12.00;99.40;;;;;;6997156;28;19919;-67
2021/04/12 10:13:48;;;;;;;;;;;12.80;97.20;;;;;;7007903;28;19916;-66
2021/04/12 10:17:20;;;;;;;;;;;13.10;96.60;;;;;;7014037;28;20402;-66
2021/04/12 10:20:55;;;;;;;;;;;12.80;95.60;;;;;;7001526;28;20011;-66
2021/04/12 10:24:27;;;;;;;;;;;12.10;94.80;;;;;;7003992;28;19919;-66
2021/04/12 10:27:51;;;;;;;;;;;12.10;96.20;;;;;;7002256;28;19920;-66
2021/04/12 10:31:34;;;;;;;;;;;13.00;96.40;;;;;;6983323;28;20019;-66
2021/04/12 10:34:57;;;;;;;;;;;13.40;95.50;;;;;;6980978;28;19997;-66
2021/04/12 10:38:30;;;;;;;;;;;12.70;95.10;;;;;;6987591;28;20375;-67
2021/04/12 10:41:57;;;;;;;;;;;11.80;95.30;;;;;;6985141;28;19943;-67
2021/04/12 10:45:22;;;;;;;;;;;12.30;94.70;;;;;;6988718;28;20012;-68
2021/04/12 10:48:48;;;;;;;;;;;14.40;93.70;;;;;;6992324;28;20006;-67
2021/04/12 10:52:21;;;;;;;;;;;17.70;91.00;;;;;;7003492;28;19916;-67
2021/04/12 10:55:45;;;;;;;;;;;21.00;82.40;;;;;;6996151;28;19928;-67
2021/04/12 10:59:06;;;;;;;;;;;22.50;72.50;;;;;;7003520;28;19916;-68
2021/04/12 11:02:41;;;;;;;;;;;23.10;73.40;;;;;;7001268;28;19913;-67
2021/04/12 11:06:10;;;;;;;;;;;24.30;68.20;;;;;;6992088;28;19917;-67
2021/04/12 11:09:37;;;;;;;;;;;27.00;66.40;;;;;;6987192;28;19917;-70
2021/04/12 11:12:58;;;;;;;;;;;27.10;58.90;;;;;;6997048;28;19919;-66
2021/04/12 11:16:34;;;;;;;;;;;21.20;58.40;;;;;;7002248;28;19959;-66
2021/04/12 11:20:11;;;;;;;;;;;19.60;59.70;;;;;;7008592;28;19916;-65
2021/04/12 11:23:36;;;;;;;;;;;15.40;65.30;;;;;;6996141;28;19920;-65
2021/04/12 11:27:15;;;;;;;;;;;13.40;70.80;;;;;;7008304;28;19924;-68
2021/04/12 11:30:42;;;;;;;;;;;13.10;74.40;;;;;;6987935;28;19920;-66
2021/04/12 11:34:26;;;;;;;;;;;19.40;72.80;;;;;;6962549;28;20279;-67
2021/04/12 11:37:58;;;;;;;;;;;25.20;61.90;;;;;;6980213;28;19927;-67
2021/04/12 11:41:24;;;;;;;;;;;25.10;57.10;;;;;;6979661;28;19929;-67
2021/04/12 11:44:47;;;;;;;;;;;20.70;56.70;;;;;;6990574;28;19912;-67
2021/04/12 11:48:11;;;;;;;;;;;15.80;59.80;;;;;;7012772;28;20344;-67
2021/04/12 11:51:39;;;;;;;;;;;14.00;64.70;;;;;;7003103;28;19920;-68
2021/04/12 11:55:05;;;;;;;;;;;13.00;70.80;;;;;;6996143;28;19924;-68
2021/04/12 11:58:44;;;;;;;;;;;12.30;73.60;;;;;;6988062;28;19952;-68
2021/04/12 12:02:20;;;;;;;;;;;11.70;83.30;;;;;;6985575;28;19913;-68
2021/04/12 12:05:55;;;;;;;;;;;11.30;87.40;;;;;;6976529;28;19943;-68
2021/04/12 12:09:31;;;;;;;;;;;10.80;89.00;;;;;;6978082;28;20423;-68
2021/04/12 12:12:58;;;;;;;;;;;10.40;90.10;;;;;;6986646;28;19951;-68
2021/04/12 12:16:36;;;;;;;;;;;10.00;91.20;;;;;;6987578;28;19943;-69
2021/04/12 12:20:02;;;;;;;;;;;9.70;92.90;;;;;;6987750;28;20355;-69
2021/04/12 12:23:31;;;;;;;;;;;9.70;94.30;;;;;;6983782;28;19923;-69
2021/04/12 12:26:55;;;;;;;;;;;10.70;92.60;;;;;;6982331;28;20352;-69
2021/04/12 12:30:29;;;;;;;;;;;10.00;94.70;;;;;;6985582;28;20379;-69
2021/04/12 12:33:53;;;;;;;;;;;9.70;95.30;;;;;;6985212;28;19913;-69
2021/04/12 12:37:24;;;;;;;;;;;9.50;96.40;;;;;;7011973;28;20387;-69
2021/04/12 12:40:45;;;;;;;;;;;11.10;96.10;;;;;;6996302;28;19917;-67
2021/04/12 12:44:07;;;;;;;;;;;20.80;81.50;;;;;;7005167;28;19971;-67
2021/04/12 12:47:30;;;;;;;;;;;27.00;64.80;;;;;;7012247;28;19923;-67
2021/04/12 12:51:00;;;;;;;;;;;31.20;59.70;;;;;;7001081;28;20459;-67
2021/04/12 12:54:29;;;;;;;;;;;32.80;55.10;;;;;;7005505;28;20291;-67
2021/04/12 12:57:50;;;;;;;;;;;33.30;51.30;;;;;;7015853;28;19912;-68
2021/04/12 13:01:10;;;;;;;;;;;34.60;51.90;;;;;;7008834;28;20294;-68
2021/04/12 13:04:31;;;;;;;;;;;32.10;48.60;;;;;;7016930;28;20669;-68
2021/04/12 13:08:06;;;;;;;;;;;33.70;45.40;;;;;;7009311;28;19927;-68
2021/04/12 13:11:33;;;;;;;;;;;35.10;45.30;;;;;;7013411;28;19916;-68
2021/04/12 13:14:54;;;;;;;;;;;30.60;44.60;;;;;;7008291;28;19919;-68
2021/04/12 13:18:15;;;;;;;;;;;24.30;49.90;;;;;;7013768;28;19931;-67
2021/04/12 13:21:37;;;;;;;;;;;19.70;53.00;;;;;;7013612;28;19920;-67
2021/04/12 13:25:31;;;;;;;;;;;16.60;58.50;;;;;;7010066;28;19951;-67
2021/04/12 13:28:52;;;;;;;;;;;19.40;55.30;;;;;;6963061;28;19916;-67
2021/04/12 13:32:15;;;;;;;;;;;19.20;54.20;;;;;;7007808;28;19919;-67
2021/04/12 13:35:37;;;;;;;;;;;17.60;56.50;;;;;;7000989;28;20010;-67
2021/04/12 13:39:04;;;;;;;;;;;15.30;57.20;;;;;;7002544;28;20403;-67
2021/04/12 13:42:26;;;;;;;;;;;13.60;61.40;;;;;;7010574;28;20340;-67
2021/04/12 13:45:48;;;;;;;;;;;14.60;66.50;;;;;;7004667;28;19920;-67
2021/04/12 13:49:13;;;;;;;;;;;18.20;57.00;;;;;;6998893;28;19917;-67
2021/04/12 13:52:35;;;;;;;;;;;15.90;59.90;;;;;;6998866;28;19935;-67
2021/04/12 13:56:02;;;;;;;;;;;13.70;64.80;;;;;;7006378;28;19917;-67
2021/04/12 13:59:28;;;;;;;;;;;12.20;65.30;;;;;;7008466;28;19920;-69
2021/04/12 14:02:55;;;;;;;;;;;11.00;69.90;;;;;;7010994;28;19948;-69
2021/04/12 14:06:24;;;;;;;;;;;10.20;71.20;;;;;;7009698;28;19916;-69
2021/04/12 14:09:51;;;;;;;;;;;10.00;73.50;;;;;;7009655;28;20274;-68
2021/04/12 14:13:25;;;;;;;;;;;10.30;76.20;;;;;;7005094;28;19999;-69
2021/04/12 14:16:47;;;;;;;;;;;11.40;78.20;;;;;;6996783;28;19958;-69
2021/04/12 14:20:38;;;;;;;;;;;19.00;70.60;;;;;;7001934;28;19921;-69
2021/04/12 14:24:07;;;;;;;;;;;21.80;58.70;;;;;;6971069;28;20368;-69
2021/04/12 14:27:28;;;;;;;;;;;23.30;56.00;;;;;;6978291;28;19956;-69
2021/04/12 14:30:51;;;;;;;;;;;23.60;52.30;;;;;;6961345;28;19935;-68
2021/04/12 14:34:18;;;;;;;;;;;24.30;52.20;;;;;;6972558;28;19944;-69
2021/04/12 14:37:40;;;;;;;;;;;21.20;51.20;;;;;;6976799;28;20453;-69
2021/04/12 14:41:02;;;;;;;;;;;23.90;49.40;;;;;;7009019;28;19912;-69
2021/04/12 14:44:28;;;;;;;;;;;25.00;51.50;;;;;;6991530;28;19920;-69
2021/04/12 14:47:55;;;;;;;;;;;23.40;51.20;;;;;;7006118;28;19920;-69
2021/04/12 14:51:18;;;;;;;;;;;23.80;48.70;;;;;;6995513;28;19916;-69
2021/04/12 14:54:40;;;;;;;;;;;23.10;50.60;;;;;;7010375;28;19920;-68
2021/04/12 14:58:24;;;;;;;;;;;20.70;51.20;;;;;;6999016;28;19920;-68
2021/04/12 15:01:50;;;;;;;;;;;18.60;52.60;;;;;;6986805;28;20446;-68
2021/04/12 15:05:14;;;;;;;;;;;16.50;53.20;;;;;;7003647;28;19912;-68
2021/04/12 15:08:36;;;;;;;;;;;15.40;56.10;;;;;;6996169;28;20321;-69
2021/04/12 15:12:10;;;;;;;;;;;16.10;56.30;;;;;;6997374;28;19913;-68
2021/04/12 15:15:50;;;;;;;;;;;16.90;54.30;;;;;;6997513;28;19920;-68
2021/04/12 15:19:29;;;;;;;;;;;17.90;52.40;;;;;;7010494;28;20367;-68
2021/04/12 15:22:52;;;;;;;;;;;15.90;54.70;;;;;;7004707;28;19912;-68
2021/04/12 15:26:12;;;;;;;;;;;15.90;56.10;;;;;;6995379;28;19923;-68
2021/04/12 15:29:43;;;;;;;;;;;16.20;55.90;;;;;;7009098;28;19912;-69
2021/04/12 15:33:18;;;;;;;;;;;18.40;57.40;;;;;;7012857;28;19913;-67
2021/04/12 15:36:41;;;;;;;;;;;22.80;54.70;;;;;;7002445;28;19916;-67
2021/04/12 15:40:06;;;;;;;;;;;23.80;53.00;;;;;;6990064;28;19917;-67
2021/04/12 15:43:29;;;;;;;;;;;23.00;54.40;;;;;;6975725;28;19916;-67
2021/04/12 15:46:55;;;;;;;;;;;22.60;53.60;;;;;;6978366;28;19920;-68
2021/04/12 15:50:33;;;;;;;;;;;21.20;55.00;;;;;;6977065;28;19916;-67
2021/04/12 15:54:20;;;;;;;;;;;19.70;57.10;;;;;;6965920;28;19967;-67
2021/04/12 15:57:41;;;;;;;;;;;18.50;56.90;;;;;;6972244;28;19986;-67
2021/04/12 16:01:25;;;;;;;;;;;16.80;59.10;;;;;;6985839;28;19920;-68
2021/04/12 16:04:53;;;;;;;;;;;16.20;61.50;;;;;;6981433;28;19920;-67
2021/04/12 16:08:26;;;;;;;;;;;16.40;61.20;;;;;;6997753;28;19916;-67
2021/04/12 16:11:49;;;;;;;;;;;16.20;59.60;;;;;;6997867;28;20314;-66
2021/04/12 16:15:22;;;;;;;;;;;16.80;62.80;;;;;;6976290;28;19913;-67
2021/04/12 16:18:59;;;;;;;;;;;17.80;60.30;;;;;;6957774;28;19917;-66
2021/04/12 16:22:23;;;;;;;;;;;15.00;59.40;;;;;;6977046;28;19913;-66
2021/04/12 16:25:44;;;;;;;;;;;13.10;60.60;;;;;;6974885;28;19916;-67
2021/04/12 16:29:17;;;;;;;;;;;11.90;62.90;;;;;;6979171;28;19917;-67
2021/04/12 16:32:38;;;;;;;;;;;11.10;66.30;;;;;;7002129;28;19912;-66
2021/04/12 16:36:01;;;;;;;;;;;10.50;67.30;;;;;;7003589;28;20286;-66
2021/04/12 16:39:26;;;;;;;;;;;9.90;68.10;;;;;;6997266;28;19956;-66
2021/04/12 16:42:47;;;;;;;;;;;9.60;70.70;;;;;;6997177;28;19962;-66
2021/04/12 16:46:14;;;;;;;;;;;9.30;71.80;;;;;;6998586;28;20302;-67
2021/04/12 16:49:35;;;;;;;;;;;9.30;73.10;;;;;;6996642;28;19912;-66
2021/04/12 16:52:57;;;;;;;;;;;9.20;73.90;;;;;;6998639;28;19983;-66
2021/04/12 16:56:29;;;;;;;;;;;9.10;73.20;;;;;;6996279;28;20355;-66
2021/04/12 17:00:05;;;;;;;;;;;9.10;76.00;;;;;;7009028;28;20383;-66
2021/04/12 17:03:46;;;;;;;;;;;8.90;75.60;;;;;;6999615;28;19923;-66
2021/04/12 17:07:14;;;;;;;;;;;8.90;77.20;;;;;;7000145;28;19926;-66
2021/04/12 17:10:49;;;;;;;;;;;8.80;77.20;;;;;;7006073;28;20390;-66
2021/04/12 17:14:19;;;;;;;;;;;8.50;75.50;;;;;;7010755;28;19935;-66
2021/04/12 17:17:44;;;;;;;;;;;8.20;74.90;;;;;;7008513;28;19916;-66
2021/04/12 17:21:23;;;;;;;;;;;8.00;75.90;;;;;;6997401;28;20007;-66
2021/04/12 17:24:46;;;;;;;;;;;7.90;77.10;;;;;;6997859;28;19955;-66
2021/04/12 17:28:12;;;;;;;;;;;7.70;78.40;;;;;;6984122;28;19928;-66
2021/04/12 17:31:38;;;;;;;;;;;7.70;79.30;;;;;;6985829;28;19920;-66
2021/04/12 17:35:01;;;;;;;;;;;7.60;81.00;;;;;;6986201;28;20291;-66
2021/04/12 17:38:27;;;;;;;;;;;7.60;81.60;;;;;;6998434;28;19920;-66
2021/04/12 17:41:49;;;;;;;;;;;7.50;82.40;;;;;;7003485;28;19927;-66
2021/04/12 17:45:27;;;;;;;;;;;7.50;83.90;;;;;;7005387;28;19930;-67
2021/04/12 17:48:49;;;;;;;;;;;7.40;84.40;;;;;;7007924;28;19917;-67
2021/04/12 17:52:24;;;;;;;;;;;7.30;85.70;;;;;;7006658;28;20522;-66
2021/04/12 17:55:47;;;;;;;;;;;7.30;86.20;;;;;;6999443;28;20379;-66
2021/04/12 17:59:10;;;;;;;;;;;7.10;87.70;;;;;;7008772;28;19912;-67
2021/04/12 18:02:40;;;;;;;;;;;7.00;86.90;;;;;;7006626;28;19919;-66
2021/04/12 18:06:01;;;;;;;;;;;6.90;88.70;;;;;;6996518;28;19966;-66
2021/04/12 18:09:37;;;;;;;;;;;6.80;89.80;;;;;;7003737;28;19919;-66
2021/04/12 18:12:57;;;;;;;;;;;6.80;92.10;;;;;;7007083;28;19920;-65
2021/04/12 18:16:20;;;;;;;;;;;6.70;94.00;;;;;;6973014;28;20279;-66
2021/04/12 18:19:43;;;;;;;;;;;6.60;96.20;;;;;;6990183;28;19919;-67
2021/04/12 18:23:13;;;;;;;;;;;6.40;98.20;;;;;;6990318;28;20051;-66
2021/04/12 18:26:36;;;;;;;;;;;6.30;99.90;;;;;;6978654;28;20529;-65
2021/04/12 18:30:14;;;;;;;;;;;6.10;99.90;;;;;;6989047;28;19946;-67
2021/04/12 18:33:40;;;;;;;;;;;6.00;99.90;;;;;;6978227;28;19954;-66
2021/04/12 18:37:06;;;;;;;;;;;5.90;99.90;;;;;;7002667;28;19912;-66
2021/04/12 18:40:39;;;;;;;;;;;5.70;99.90;;;;;;6984228;28;19967;-65
2021/04/12 18:44:09;;;;;;;;;;;5.70;99.90;;;;;;6980630;28;19913;-65
2021/04/12 18:47:38;;;;;;;;;;;5.70;99.90;;;;;;6984528;28;19924;-66
2021/04/12 18:51:18;;;;;;;;;;;5.60;99.90;;;;;;6980749;28;20436;-66
2021/04/12 18:55:05;;;;;;;;;;;5.60;99.90;;;;;;6981913;28;19912;-65
2021/04/12 18:58:35;;;;;;;;;;;5.50;99.90;;;;;;6975014;28;19917;-65
2021/04/12 19:02:14;;;;;;;;;;;5.40;99.90;;;;;;6959305;28;20283;-66
2021/04/12 19:05:48;;;;;;;;;;;5.40;99.90;;;;;;6984198;28;20306;-65
2021/04/12 19:09:09;;;;;;;;;;;5.30;99.90;;;;;;6997002;28;20018;-66
2021/04/12 19:12:34;;;;;;;;;;;5.20;99.90;;;;;;7011305;28;20026;-66
2021/04/12 19:16:01;;;;;;;;;;;5.20;99.90;;;;;;6994306;28;19999;-66
2021/04/12 19:19:23;;;;;;;;;;;5.20;99.90;;;;;;6990685;28;19916;-67
2021/04/12 19:22:49;;;;;;;;;;;5.20;99.90;;;;;;6981171;28;19912;-65
2021/04/12 19:26:28;;;;;;;;;;;5.30;99.90;;;;;;7014868;28;19951;-65
2021/04/12 19:29:56;;;;;;;;;;;5.50;99.90;;;;;;6984062;28;19919;-66
2021/04/12 19:33:35;;;;;;;;;;;5.50;99.90;;;;;;7017036;28;19919;-65
2021/04/12 19:36:55;;;;;;;;;;;5.40;99.90;;;;;;6993617;28;19917;-65
2021/04/12 19:40:25;;;;;;;;;;;5.40;99.90;;;;;;6989012;28;19919;-65
2021/04/12 19:44:19;;;;;;;;;;;5.40;99.90;;;;;;7011832;28;20027;-65
2021/04/12 19:48:06;;;;;;;;;;;5.20;99.90;;;;;;6984115;28;19917;-65
2021/04/12 19:51:46;;;;;;;;;;;5.10;99.90;;;;;;6984247;28;19917;-66
2021/04/12 19:55:11;;;;;;;;;;;5.10;99.90;;;;;;6994987;28;19935;-65
2021/04/12 19:58:49;;;;;;;;;;;5.00;99.90;;;;;;6996208;28;20291;-66
2021/04/12 20:02:16;;;;;;;;;;;4.90;99.90;;;;;;7005997;28;19982;-66
2021/04/12 20:05:53;;;;;;;;;;;4.90;99.90;;;;;;6993460;28;19920;-65
2021/04/12 20:09:35;;;;;;;;;;;4.80;99.90;;;;;;7005139;28;19969;-67
2021/04/12 20:12:59;;;;;;;;;;;4.80;99.90;;;;;;7010455;28;20355;-66
2021/04/12 20:16:28;;;;;;;;;;;4.70;99.90;;;;;;7005768;28;19919;-66
2021/04/12 20:19:51;;;;;;;;;;;4.70;99.90;;;;;;7012839;28;20283;-67
2021/04/12 20:23:31;;;;;;;;;;;4.70;99.90;;;;;;7011849;28;19974;-66
2021/04/12 20:27:24;;;;;;;;;;;4.60;99.90;;;;;;7004016;28;20467;-66
2021/04/12 20:30:49;;;;;;;;;;;4.60;99.90;;;;;;6938144;28;20275;-65
2021/04/12 20:34:16;;;;;;;;;;;4.50;99.90;;;;;;7001147;28;20002;-66
2021/04/12 20:37:55;;;;;;;;;;;4.40;99.90;;;;;;6999143;28;19920;-66